createdAt,value
2023-04-03T00:01:39.449Z,101583.25
2023-04-03T00:06:42.742Z,101595.31
2023-04-03T00:11:44.360Z,101587.28
2023-04-03T00:16:46.090Z,101589.22
2023-04-03T00:21:49.140Z,101586.84
2023-04-03T00:26:50.737Z,101592.84
2023-04-03T00:31:52.468Z,101595.63
2023-04-03T00:36:55.689Z,101589.13
2023-04-03T00:41:57.497Z,101581.81
2023-04-03T00:46:59.360Z,101592.50
2023-04-03T00:52:02.776Z,101586.25
2023-04-03T00:57:05.551Z,101588.41
2023-04-03T01:02:07.600Z,101583.63
2023-04-03T01:07:13.530Z,101583.47
2023-04-03T01:12:16.390Z,101579.38
2023-04-03T01:17:29.982Z,101574.41
2023-04-03T01:22:42.935Z,101577.56
2023-04-03T01:27:44.585Z,101575.84
2023-04-03T01:32:47.651Z,101570.63
2023-04-03T01:37:49.346Z,101579.19
2023-04-03T01:42:51.087Z,101572.63
2023-04-03T01:47:55.414Z,101568.38
2023-04-03T01:52:57.502Z,101574.47
2023-04-03T01:57:59.492Z,101566.34
2023-04-03T02:03:02.698Z,101559.88
2023-04-03T02:08:04.860Z,101548.50
2023-04-03T02:13:06.820Z,101554.97
2023-04-03T02:18:09.932Z,101553.13
2023-04-03T02:23:11.598Z,101552.47
2023-04-03T02:28:13.262Z,101555.09
2023-04-03T02:33:16.316Z,101558.97
2023-04-03T02:38:17.957Z,101558.00
2023-04-03T02:43:19.671Z,101559.28
2023-04-03T02:48:23.052Z,101563.75
2023-04-03T02:53:24.921Z,101559.56
2023-04-03T02:58:26.590Z,101560.84
2023-04-03T03:03:29.582Z,101569.69
2023-04-03T03:08:31.206Z,101574.56
2023-04-03T03:13:32.907Z,101570.22
2023-04-03T03:18:36.602Z,101581.34
2023-04-03T03:23:38.279Z,101575.41
2023-04-03T03:28:40.750Z,101578.09
2023-04-03T03:33:43.910Z,101578.50
2023-04-03T03:38:48.383Z,101574.47
2023-04-03T03:43:50.087Z,101579.38
2023-04-03T03:48:53.079Z,101578.66
2023-04-03T03:53:54.703Z,101578.00
2023-04-03T03:58:56.403Z,101582.53
2023-04-03T04:03:59.518Z,101575.94
2023-04-03T04:09:01.191Z,101578.41
2023-04-03T04:14:02.880Z,101575.50
2023-04-03T04:19:07.707Z,101581.09
2023-04-03T04:24:10.753Z,101579.84
2023-04-03T04:29:12.621Z,101573.13
2023-04-03T04:34:15.988Z,101582.22
2023-04-03T04:39:17.627Z,101581.84
2023-04-03T04:44:19.319Z,101580.75
2023-04-03T04:49:22.331Z,101583.03
2023-04-03T04:54:24.082Z,101586.56
2023-04-03T04:59:25.895Z,101596.94
2023-04-03T05:04:29.108Z,101610.13
2023-04-03T05:09:30.746Z,101610.13
2023-04-03T05:14:32.501Z,101622.50
2023-04-03T05:19:35.504Z,101619.06
2023-04-03T05:24:37.155Z,101625.84
2023-04-03T05:29:38.836Z,101626.16
2023-04-03T05:34:41.961Z,101623.78
2023-04-03T05:39:43.581Z,101620.44
2023-04-03T05:44:45.269Z,101631.91
2023-04-03T05:49:48.473Z,101636.50
2023-04-03T05:54:50.171Z,101639.91
2023-04-03T05:59:51.936Z,101645.06
2023-04-03T06:04:58.049Z,101644.75
2023-04-03T06:10:00.023Z,101651.28
2023-04-03T06:15:01.684Z,101659.97
2023-04-03T06:20:05.917Z,101653.00
2023-04-03T06:25:08.539Z,101675.75
2023-04-03T06:30:10.654Z,101678.75
2023-04-03T06:35:13.675Z,101677.50
2023-04-03T06:40:20.513Z,101676.53
2023-04-03T06:45:22.098Z,101691.72
2023-04-03T06:50:25.212Z,101698.69
2023-04-03T06:55:26.859Z,101709.75
2023-04-03T07:00:28.700Z,101703.75
2023-04-03T07:05:31.981Z,101703.84
2023-04-03T07:10:42.827Z,101704.56
2023-04-03T07:15:44.692Z,101715.31
2023-04-03T07:20:47.989Z,101713.97
2023-04-03T07:25:51.096Z,101715.31
2023-04-03T07:30:54.927Z,101713.38
2023-04-03T07:35:57.953Z,101724.56
2023-04-03T07:40:59.572Z,101722.84
2023-04-03T07:46:01.375Z,101721.25
2023-04-03T07:51:05.602Z,101733.47
2023-04-03T07:56:07.502Z,101721.88
2023-04-03T08:01:09.110Z,101721.94
2023-04-03T08:06:16.008Z,101737.91
2023-04-03T08:11:18.333Z,101735.66
2023-04-03T08:16:23.365Z,101740.66
2023-04-03T08:21:26.619Z,101738.44
2023-04-03T08:26:28.386Z,101734.13
2023-04-03T08:31:30.210Z,101728.47
2023-04-03T08:36:33.480Z,101731.03
2023-04-03T08:41:37.325Z,101743.13
2023-04-03T08:46:53.817Z,101745.03
2023-04-03T08:51:58.899Z,101730.41
2023-04-03T08:57:04.494Z,101734.06
2023-04-03T09:02:24.423Z,101746.13
2023-04-03T09:07:36.791Z,101743.19
2023-04-03T09:12:42.037Z,101747.56
2023-04-03T09:17:54.269Z,101751.19
2023-04-03T09:22:58.584Z,101761.44
2023-04-03T09:28:00.896Z,101743.94
2023-04-03T09:33:02.668Z,101738.97
2023-04-03T09:38:21.540Z,101738.28
2023-04-03T09:43:27.357Z,101744.13
2023-04-03T09:48:29.240Z,101736.16
2023-04-03T09:53:37.801Z,101742.34
2023-04-03T09:58:49.859Z,101732.47
2023-04-03T10:04:05.648Z,101744.66
2023-04-03T10:09:18.829Z,101737.34
2023-04-03T10:14:20.494Z,101737.06
2023-04-03T10:19:35.018Z,101746.22
2023-04-03T10:24:48.540Z,101724.28
2023-04-03T10:29:56.094Z,101733.75
2023-04-03T10:35:09.105Z,101714.50
2023-04-03T10:40:23.323Z,101720.16
2023-04-03T10:45:29.686Z,101709.59
2023-04-03T10:50:40.781Z,101711.34
2023-04-03T10:55:51.909Z,101701.41
2023-04-03T11:00:57.567Z,101702.31
2023-04-03T11:06:00.698Z,101705.44
2023-04-03T11:11:08.036Z,101688.16
2023-04-03T11:16:09.982Z,101696.97
2023-04-03T11:21:20.381Z,101681.53
2023-04-03T11:26:28.303Z,101690.34
2023-04-03T11:31:48.625Z,101681.56
2023-04-03T11:36:54.920Z,101679.19
2023-04-03T11:42:15.684Z,101663.03
2023-04-03T11:47:45.576Z,101661.69
2023-04-03T11:53:02.477Z,101666.31
2023-04-03T11:58:15.299Z,101652.44
2023-04-03T12:04:01.849Z,101642.19
2023-04-03T12:09:24.258Z,101656.16
2023-04-03T12:14:28.740Z,101655.38
2023-04-03T12:19:42.373Z,101646.94
2023-04-03T12:24:45.992Z,101633.97
2023-04-03T12:29:55.273Z,101631.53
2023-04-03T12:35:08.575Z,101644.72
2023-04-03T12:40:17.911Z,101626.19
2023-04-03T12:45:23.016Z,101612.81
2023-04-03T12:50:28.166Z,101608.78
2023-04-03T12:55:29.864Z,101618.06
2023-04-03T13:00:36.752Z,101627.34
2023-04-03T13:05:39.689Z,101615.66
2023-04-03T13:10:51.009Z,101608.63
2023-04-03T13:15:54.555Z,101602.25
2023-04-03T13:21:04.063Z,101605.03
2023-04-03T13:26:06.758Z,101600.91
2023-04-03T13:31:20.215Z,101595.22
2023-04-03T13:36:24.229Z,101595.44
2023-04-03T13:41:30.083Z,101600.41
2023-04-03T13:46:33.353Z,101581.16
2023-04-03T13:51:39.990Z,101583.88
2023-04-03T13:56:42.093Z,101582.69
2023-04-03T14:01:49.102Z,101577.31
2023-04-03T14:06:51.116Z,101588.63
2023-04-03T14:11:55.657Z,101579.56
2023-04-03T14:17:01.638Z,101568.59
2023-04-03T14:22:13.950Z,101566.69
2023-04-03T14:27:19.439Z,101566.78
2023-04-03T14:32:25.012Z,101551.84
2023-04-03T14:37:29.531Z,101555.34
2023-04-03T14:42:33.587Z,101540.38
2023-04-03T14:47:41.792Z,101542.75
2023-04-03T14:52:44.777Z,101551.47
2023-04-03T14:57:46.944Z,101545.25
2023-04-03T15:02:50.499Z,101546.94
2023-04-03T15:07:55.906Z,101532.88
2023-04-03T15:12:58.727Z,101540.34
2023-04-03T15:18:01.997Z,101542.06
2023-04-03T15:23:03.811Z,101537.84
2023-04-03T15:28:05.719Z,101548.38
2023-04-03T15:33:08.848Z,101534.44
2023-04-03T15:38:11.105Z,101532.94
2023-04-03T15:43:12.832Z,101525.59
2023-04-03T15:48:16.491Z,101543.00
2023-04-03T15:53:18.194Z,101539.50
2023-04-03T15:58:19.883Z,101530.59
2023-04-03T16:03:23.305Z,101543.09
2023-04-03T16:08:25.145Z,101552.28
2023-04-03T16:13:27.052Z,101545.22
2023-04-03T16:18:30.722Z,101539.94
2023-04-03T16:23:32.470Z,101544.78
2023-04-03T16:28:34.129Z,101539.34
2023-04-03T16:33:37.503Z,101545.56
2023-04-03T16:38:39.154Z,101535.28
2023-04-03T16:48:43.941Z,101533.75
2023-04-03T16:53:47.358Z,101530.59
2023-04-03T16:58:49.125Z,101530.19
2023-04-03T17:03:52.400Z,101537.41
2023-04-03T17:08:54.263Z,101534.09
2023-04-03T17:13:56.033Z,101544.03
2023-04-03T17:18:59.249Z,101556.63
2023-04-03T17:24:04.241Z,101564.63
2023-04-03T17:29:07.735Z,101550.44
2023-04-03T17:34:11.225Z,101546.50
2023-04-03T17:39:13.598Z,101556.53
2023-04-03T17:44:15.593Z,101557.22
2023-04-03T17:49:18.923Z,101566.81
2023-04-03T17:54:20.606Z,101558.91
2023-04-03T17:59:22.470Z,101557.78
2023-04-03T18:04:25.847Z,101568.03
2023-04-03T18:09:31.502Z,101574.53
2023-04-03T18:14:35.291Z,101572.59
2023-04-03T18:19:38.448Z,101581.34
2023-04-03T18:24:41.053Z,101577.91
2023-04-03T18:29:44.955Z,101585.31
2023-04-03T18:34:48.121Z,101588.41
2023-04-03T18:39:49.940Z,101589.69
2023-04-03T18:44:55.177Z,101592.81
2023-04-03T18:49:58.689Z,101598.78
2023-04-03T18:55:00.395Z,101603.50
2023-04-03T19:00:02.301Z,101601.81
2023-04-03T19:05:07.578Z,101598.91
2023-04-03T19:10:10.455Z,101610.41
2023-04-03T19:15:13.065Z,101614.22
2023-04-03T19:20:16.410Z,101616.41
2023-04-03T19:25:18.235Z,101629.16
2023-04-03T19:30:20.122Z,101623.06
2023-04-03T19:35:23.198Z,101619.81
2023-04-03T19:40:25.292Z,101631.50
2023-04-03T19:45:27.182Z,101629.53
2023-04-03T19:50:30.162Z,101627.91
2023-04-03T19:55:31.792Z,101632.41
2023-04-03T20:00:33.523Z,101636.91
2023-04-03T20:05:36.873Z,101638.16
2023-04-03T20:10:38.710Z,101631.00
2023-04-03T20:15:41.832Z,101639.09
2023-04-03T20:20:45.393Z,101637.03
2023-04-03T20:26:01.463Z,101632.41
2023-04-03T20:31:08.163Z,101642.53
2023-04-03T20:36:11.313Z,101637.06
2023-04-03T20:41:13.422Z,101634.03
2023-04-03T20:46:15.495Z,101644.22
2023-04-03T20:51:20.118Z,101636.34
2023-04-03T20:56:21.798Z,101632.91
2023-04-03T21:01:24.385Z,101645.25
2023-04-03T21:07:04.683Z,101649.09
2023-04-03T21:12:43.434Z,101644.19
2023-04-03T21:18:16.076Z,101640.41
2023-04-03T21:23:17.832Z,101636.16
2023-04-03T21:28:19.590Z,101635.41
2023-04-03T21:33:22.580Z,101638.88
2023-04-03T21:38:24.266Z,101634.25
2023-04-03T21:43:26.038Z,101632.28
2023-04-03T21:48:29.179Z,101635.22
2023-04-03T21:53:31.031Z,101633.25
2023-04-03T21:58:33.331Z,101641.97
2023-04-03T22:03:36.376Z,101640.91
2023-04-03T22:08:38.431Z,101643.56
2023-04-03T22:13:40.575Z,101637.78
2023-04-03T22:18:43.589Z,101643.09
2023-04-03T22:23:45.231Z,101640.56
2023-04-03T22:28:47.345Z,101638.34
2023-04-03T22:33:50.406Z,101642.59
2023-04-03T22:38:52.092Z,101641.53
2023-04-03T22:43:53.776Z,101645.25
2023-04-03T22:48:56.765Z,101650.63
2023-04-03T22:53:58.410Z,101655.38
2023-04-03T22:59:00.261Z,101657.72
2023-04-03T23:04:03.460Z,101659.34
2023-04-03T23:09:05.272Z,101653.88
2023-04-03T23:14:06.991Z,101663.13
2023-04-03T23:19:09.987Z,101654.16
2023-04-03T23:24:11.646Z,101649.63
2023-04-03T23:29:13.327Z,101655.69
2023-04-03T23:34:16.411Z,101649.88
2023-04-03T23:39:18.089Z,101649.31
2023-04-03T23:44:19.773Z,101649.03
2023-04-03T23:49:22.833Z,101653.59
2023-04-03T23:54:24.475Z,101643.06
2023-04-03T23:59:26.303Z,101641.34
